Main page
METAR-TAF:

METAR-TAF

Airports :

Heathrow Airport

London-Heathrow, England

latitude: 51-29N, longitude: 000-27W, elevation: 24 m

Current weather observation

The report was made 31 minutes ago, at 20:50 UTC
Wind 7 kt from the East
Temperature 15°C
Humidity 51%
Pressure 1028 hPa
Visibility 10 km or more

METAR: EGLL 202050Z AUTO 10007KT 9999 NCD 15/05 Q1028 NOSIG

Time: 22:21 (21:21 UTC)

Forecast

The report was made 4 hours and 27 minutes ago, at 16:54 UTC
Forecast valid from 20 at 18 UTC to 21 at 24 UTC
Wind 3 kt from variable directions
Visibility 10 km or more
no clouds below 1500 m and no cumulonimbus
Becoming
from 21 at 00 UTC to 21 at 03 UTC
Visibility: 7000 m
Probability 30%
from 21 at 04 UTC to 21 at 08 UTC
Visibility: 4000 m
haze
Becoming
from 21 at 06 UTC to 21 at 08 UTC
Visibility 10 km or more
no clouds below 1500 m and no cumulonimbus

TAF: EGLL 201654Z 2018/2124 VRB03KT CAVOK BECMG 2100/2103 7000 PROB30 2104/2108 4000 HZ BECMG 2106/2108 CAVOK

Weather observations and forecasts of more than 4000 airports (METAR and TAF reports).

The available stations are represented by yellow and red dots on the map.

Hover mouse over dot to see the name of the station.

Then click to see weather observations and forecasts.

To change the map : click on the green buttons with a black cross to zoom in, on the green button with a dash to zoom out, or on the green arrows for adjacent maps.


METAR-TAF: